Time;durP1;ratioP1;P1;durP2;ratioP2;P2;SDS_P1;SDS_P2;PMS_P1;PMS_P2;Temp;Humidity;BMP_temperature;BMP_pressure;BME280_temperature;BME280_humidity;BME280_pressure;Samples;Min_cycle;Max_cycle;Signal;HPM_P1;HPM_P2
2021/09/09 00:00:24;;;;;;;24.63;16.95;;;10.40;99.90;;;;;;5091798;28;20064;-84
2021/09/09 00:02:51;;;;;;;20.10;15.40;;;10.40;99.90;;;;;;5089246;28;20578;-84
2021/09/09 00:05:18;;;;;;;25.17;16.45;;;10.40;99.90;;;;;;5089642;28;20102;-84
2021/09/09 00:07:45;;;;;;;22.50;16.95;;;10.30;99.90;;;;;;5095592;28;20098;-84
2021/09/09 00:10:12;;;;;;;25.00;17.70;;;10.20;99.90;;;;;;5089312;28;20094;-84
2021/09/09 00:12:40;;;;;;;29.48;19.10;;;10.20;99.90;;;;;;5089295;28;20094;-84
2021/09/09 00:15:07;;;;;;;22.60;17.15;;;10.20;99.90;;;;;;5089429;28;20573;-84
2021/09/09 00:17:34;;;;;;;20.67;17.13;;;10.20;99.90;;;;;;5090826;28;20048;-85
2021/09/09 00:20:01;;;;;;;23.55;17.50;;;10.10;99.90;;;;;;5093341;28;20052;-84
2021/09/09 00:22:28;;;;;;;25.52;17.30;;;10.20;99.90;;;;;;5093179;28;20083;-85
2021/09/09 00:24:54;;;;;;;24.67;17.10;;;10.20;99.90;;;;;;5095079;28;20134;-85
2021/09/09 00:27:21;;;;;;;23.92;16.83;;;10.20;99.90;;;;;;5093831;28;20079;-85
2021/09/09 00:29:48;;;;;;;22.05;17.77;;;10.10;99.90;;;;;;5093849;28;20135;-85
2021/09/09 00:32:14;;;;;;;26.00;19.05;;;10.20;99.90;;;;;;5094529;28;20082;-85
2021/09/09 00:34:41;;;;;;;26.85;20.35;;;10.10;99.90;;;;;;5094661;28;20132;-84
2021/09/09 00:37:08;;;;;;;27.55;18.90;;;10.10;99.90;;;;;;5094648;28;20071;-85
2021/09/09 00:39:34;;;;;;;24.52;18.92;;;10.00;99.90;;;;;;5095150;28;20112;-85
2021/09/09 00:42:01;;;;;;;25.08;19.30;;;10.00;99.90;;;;;;5084339;28;20083;-85
2021/09/09 00:44:29;;;;;;;23.55;18.10;;;10.10;99.90;;;;;;5083679;28;20083;-85
2021/09/09 00:47:08;;;;;;;23.67;18.33;;;10.00;99.90;;;;;;5082764;28;20116;-85
2021/09/09 00:49:37;;;;;;;24.25;16.27;;;10.00;99.90;;;;;;5084029;28;20489;-85
2021/09/09 00:52:05;;;;;;;22.85;17.55;;;10.00;99.90;;;;;;5085141;28;20076;-85
2021/09/09 00:54:32;;;;;;;27.73;18.35;;;10.00;99.90;;;;;;5087726;28;20060;-85
2021/09/09 00:57:02;;;;;;;30.42;19.45;;;9.90;99.90;;;;;;5078814;28;20052;-84
2021/09/09 00:59:31;;;;;;;33.08;20.45;;;9.70;99.90;;;;;;5077542;28;20139;-84
2021/09/09 01:01:57;;;;;;;24.83;19.27;;;9.80;99.90;;;;;;5076682;28;20095;-84
2021/09/09 01:04:25;;;;;;;31.52;19.30;;;9.80;99.90;;;;;;5075186;28;20063;-85
2021/09/09 01:06:53;;;;;;;26.77;18.98;;;9.80;99.90;;;;;;5075257;28;20088;-84
2021/09/09 01:09:20;;;;;;;30.75;20.08;;;9.80;99.90;;;;;;5076914;28;20424;-84
2021/09/09 01:11:47;;;;;;;25.15;19.15;;;9.80;99.90;;;;;;5075447;28;20049;-84
2021/09/09 01:14:16;;;;;;;31.00;18.90;;;9.80;99.90;;;;;;5076790;28;20040;-83
2021/09/09 01:16:45;;;;;;;24.63;18.33;;;9.70;99.90;;;;;;5074734;28;20144;-84
2021/09/09 01:19:13;;;;;;;30.23;20.95;;;9.70;99.90;;;;;;5075259;28;20127;-84
2021/09/09 01:21:40;;;;;;;27.60;18.67;;;9.60;99.90;;;;;;5076254;28;20233;-84
2021/09/09 01:24:15;;;;;;;30.15;20.35;;;9.60;99.90;;;;;;5074892;28;20072;-83
2021/09/09 01:26:47;;;;;;;31.48;21.40;;;9.70;99.90;;;;;;5074820;28;20144;-83
2021/09/09 01:29:14;;;;;;;28.10;17.77;;;9.70;99.90;;;;;;5074432;28;20132;-84
2021/09/09 01:31:40;;;;;;;24.45;17.95;;;9.60;99.90;;;;;;5074625;28;20045;-84
2021/09/09 01:34:07;;;;;;;28.35;18.75;;;9.50;99.90;;;;;;5075149;28;20044;-83
2021/09/09 01:36:34;;;;;;;26.73;18.25;;;9.50;99.90;;;;;;5082920;28;20080;-83
2021/09/09 01:39:01;;;;;;;22.02;16.75;;;9.50;99.90;;;;;;5075984;28;20089;-83
2021/09/09 01:41:27;;;;;;;28.58;19.67;;;9.50;99.90;;;;;;5075793;28;20053;-83
2021/09/09 01:43:54;;;;;;;25.80;19.23;;;9.50;99.90;;;;;;5075825;28;20095;-83
2021/09/09 01:46:21;;;;;;;26.23;19.00;;;9.50;99.90;;;;;;5075361;28;20131;-83
2021/09/09 01:48:48;;;;;;;25.48;18.23;;;9.50;99.90;;;;;;5075624;28;20490;-83
2021/09/09 01:51:14;;;;;;;23.90;18.42;;;9.40;99.90;;;;;;5075163;28;20556;-83
2021/09/09 01:53:41;;;;;;;23.67;17.60;;;9.30;99.90;;;;;;5074111;28;20557;-83
2021/09/09 01:56:08;;;;;;;26.05;18.90;;;9.40;99.90;;;;;;5076825;28;20124;-83
2021/09/09 01:58:35;;;;;;;24.92;17.35;;;9.40;99.90;;;;;;5076827;28;20131;-83
2021/09/09 02:01:02;;;;;;;28.60;19.50;;;9.40;99.90;;;;;;5074933;28;20049;-83
2021/09/09 02:03:29;;;;;;;22.05;17.35;;;9.30;99.90;;;;;;5076176;28;20501;-83
2021/09/09 02:05:56;;;;;;;24.42;17.08;;;9.20;99.90;;;;;;5075354;28;20048;-83
2021/09/09 02:08:22;;;;;;;24.15;17.90;;;9.20;99.90;;;;;;5076227;28;20113;-83
2021/09/09 02:10:49;;;;;;;21.42;16.35;;;9.20;99.90;;;;;;5074919;28;20045;-83
2021/09/09 02:13:16;;;;;;;25.85;18.95;;;9.20;99.90;;;;;;5075052;28;20052;-83
2021/09/09 02:15:43;;;;;;;27.98;17.20;;;9.10;99.90;;;;;;5075161;28;20468;-83
2021/09/09 02:18:10;;;;;;;27.20;18.48;;;9.10;99.90;;;;;;5074826;28;20139;-83
2021/09/09 02:20:38;;;;;;;22.50;18.25;;;9.10;99.90;;;;;;5075287;28;20044;-84
2021/09/09 02:23:05;;;;;;;24.27;17.83;;;9.00;99.90;;;;;;5077391;28;20490;-84
2021/09/09 02:25:31;;;;;;;23.90;17.92;;;9.00;99.90;;;;;;5077306;28;20075;-84
2021/09/09 02:27:58;;;;;;;27.38;20.15;;;9.00;99.90;;;;;;5075398;28;20497;-84
2021/09/09 02:30:26;;;;;;;27.77;20.42;;;8.90;99.90;;;;;;5073995;28;20054;-83
2021/09/09 02:32:53;;;;;;;29.52;19.73;;;8.90;99.90;;;;;;5073860;28;20068;-84
2021/09/09 02:35:20;;;;;;;27.42;19.33;;;8.80;99.90;;;;;;5073828;28;20076;-84
2021/09/09 02:37:47;;;;;;;23.42;17.10;;;8.80;99.90;;;;;;5073992;28;20110;-83
2021/09/09 02:40:14;;;;;;;27.23;17.55;;;8.90;99.90;;;;;;5074519;28;20136;-83
2021/09/09 02:42:42;;;;;;;26.85;17.38;;;8.80;99.90;;;;;;5074579;28;20052;-83
2021/09/09 02:45:10;;;;;;;23.40;17.30;;;8.80;99.90;;;;;;5074045;28;20470;-83
2021/09/09 02:47:37;;;;;;;23.17;17.58;;;8.70;99.90;;;;;;5074412;28;20079;-84
2021/09/09 02:50:06;;;;;;;20.60;16.60;;;8.80;99.90;;;;;;5073788;28;20044;-83
2021/09/09 02:52:33;;;;;;;24.02;17.90;;;8.70;99.90;;;;;;5073639;28;20383;-83
2021/09/09 02:55:00;;;;;;;26.40;17.40;;;8.80;99.90;;;;;;5073554;28;20136;-83
2021/09/09 02:57:26;;;;;;;22.15;17.17;;;8.80;99.90;;;;;;5078804;28;20127;-84
2021/09/09 02:59:53;;;;;;;23.42;17.55;;;8.80;99.90;;;;;;5077439;28;20091;-84
2021/09/09 03:02:20;;;;;;;24.27;17.52;;;8.80;99.90;;;;;;5078037;28;20080;-84
2021/09/09 03:04:47;;;;;;;25.42;19.13;;;8.80;99.90;;;;;;5077316;28;20049;-83
2021/09/09 03:07:13;;;;;;;22.33;17.23;;;8.80;99.90;;;;;;5078299;28;20123;-83
2021/09/09 03:09:40;;;;;;;22.45;17.30;;;8.80;99.90;;;;;;5078479;28;20074;-83
2021/09/09 03:12:07;;;;;;;23.25;18.13;;;8.80;99.90;;;;;;5079046;28;20179;-83
2021/09/09 03:14:34;;;;;;;25.27;16.88;;;8.90;99.90;;;;;;5077760;28;20128;-83
2021/09/09 03:17:00;;;;;;;22.10;16.50;;;8.80;99.90;;;;;;5082067;28;20076;-82
2021/09/09 03:19:27;;;;;;;24.00;16.50;;;8.70;99.90;;;;;;5089748;28;20051;-82
2021/09/09 03:21:54;;;;;;;27.90;18.05;;;8.70;99.90;;;;;;5073575;28;20055;-82
2021/09/09 03:24:20;;;;;;;26.55;18.15;;;8.70;99.90;;;;;;5073966;28;20497;-83
2021/09/09 03:26:47;;;;;;;32.63;20.80;;;8.60;99.90;;;;;;5074805;28;20054;-83
2021/09/09 03:29:14;;;;;;;27.48;19.10;;;8.60;99.90;;;;;;5075315;28;20557;-82
2021/09/09 03:31:40;;;;;;;30.40;20.35;;;8.60;99.90;;;;;;5074146;28;20485;-83
2021/09/09 03:34:07;;;;;;;25.90;18.58;;;8.60;99.90;;;;;;5075255;28;20079;-83
2021/09/09 03:36:34;;;;;;;27.67;17.55;;;8.70;99.90;;;;;;5073360;28;20083;-84
2021/09/09 03:39:01;;;;;;;26.15;18.33;;;8.80;99.90;;;;;;5073502;28;20052;-83
2021/09/09 03:41:27;;;;;;;27.52;17.42;;;8.80;99.90;;;;;;5074102;28;20088;-83
2021/09/09 03:43:54;;;;;;;23.85;17.90;;;8.80;99.90;;;;;;5074760;28;20482;-83
2021/09/09 03:46:21;;;;;;;22.55;17.02;;;8.70;99.90;;;;;;5074732;28;20136;-82
2021/09/09 03:48:47;;;;;;;21.13;16.08;;;8.70;99.90;;;;;;5074154;28;20506;-82
2021/09/09 03:51:15;;;;;;;25.05;17.48;;;8.70;99.90;;;;;;5074950;28;20049;-82
2021/09/09 03:53:42;;;;;;;19.85;15.80;;;8.60;99.90;;;;;;5074689;28;20132;-83
2021/09/09 03:56:08;;;;;;;21.00;16.27;;;8.60;99.90;;;;;;5074531;28;20132;-82
2021/09/09 03:58:35;;;;;;;20.00;15.70;;;8.50;99.90;;;;;;5073531;28;20409;-82
2021/09/09 04:01:02;;;;;;;22.73;15.05;;;8.50;99.90;;;;;;5073875;28;20514;-82
2021/09/09 04:03:29;;;;;;;18.02;14.85;;;8.40;99.90;;;;;;5073178;28;20055;-82
2021/09/09 04:05:56;;;;;;;19.08;15.05;;;8.40;99.90;;;;;;5074928;28;20448;-82
2021/09/09 04:08:23;;;;;;;22.27;16.77;;;8.30;99.90;;;;;;5072838;28;20080;-82
2021/09/09 04:10:50;;;;;;;24.08;18.38;;;8.30;99.90;;;;;;5073300;28;20486;-82
2021/09/09 04:13:16;;;;;;;21.80;17.73;;;8.20;99.90;;;;;;5074364;28;20076;-82
2021/09/09 04:15:43;;;;;;;25.05;18.05;;;8.20;99.90;;;;;;5074600;28;20051;-83
2021/09/09 04:18:10;;;;;;;23.52;16.58;;;8.30;99.90;;;;;;5082070;28;20044;-82
2021/09/09 04:20:37;;;;;;;24.33;17.48;;;8.20;99.90;;;;;;5077611;28;20087;-82
2021/09/09 04:23:04;;;;;;;22.90;16.85;;;8.20;99.90;;;;;;5077390;28;20052;-82
2021/09/09 04:25:31;;;;;;;24.75;16.77;;;8.20;99.90;;;;;;5079079;28;20470;-82
2021/09/09 04:27:58;;;;;;;27.27;16.52;;;8.20;99.90;;;;;;5077979;28;20131;-82
2021/09/09 04:30:25;;;;;;;23.63;17.15;;;8.20;99.90;;;;;;5077057;28;20501;-82
2021/09/09 04:32:52;;;;;;;25.98;17.48;;;8.20;99.90;;;;;;5077826;28;20127;-82
2021/09/09 04:35:19;;;;;;;21.50;17.38;;;8.20;99.90;;;;;;5077200;28;20132;-82
2021/09/09 04:37:45;;;;;;;23.48;16.52;;;8.20;99.90;;;;;;5077037;28;20083;-82
2021/09/09 04:40:13;;;;;;;26.33;18.30;;;8.20;99.90;;;;;;5076953;28;20131;-82
2021/09/09 04:42:39;;;;;;;23.08;17.58;;;8.20;99.90;;;;;;5078423;28;20044;-81
2021/09/09 04:45:06;;;;;;;22.30;17.52;;;8.20;99.90;;;;;;5078364;28;20123;-82
2021/09/09 04:47:34;;;;;;;26.35;18.27;;;8.20;99.90;;;;;;5077470;28;20084;-82
2021/09/09 04:50:01;;;;;;;27.92;17.73;;;8.30;99.90;;;;;;5078892;28;20160;-82
2021/09/09 04:52:28;;;;;;;20.92;16.45;;;8.10;99.90;;;;;;5078702;28;20136;-82
2021/09/09 04:54:54;;;;;;;29.05;18.40;;;8.20;99.90;;;;;;5078297;28;20127;-82
2021/09/09 04:57:21;;;;;;;29.02;19.40;;;8.10;99.90;;;;;;5077751;28;20052;-84
2021/09/09 04:59:48;;;;;;;34.63;19.83;;;8.10;99.90;;;;;;5077934;28;20040;-84
2021/09/09 05:02:14;;;;;;;29.75;20.30;;;8.00;99.90;;;;;;5078585;28;20116;-84
2021/09/09 05:04:42;;;;;;;42.85;22.92;;;8.10;99.90;;;;;;5078205;28;20555;-84
2021/09/09 05:07:08;;;;;;;34.97;21.52;;;8.20;99.90;;;;;;5078238;28;20076;-84
2021/09/09 05:09:35;;;;;;;29.10;20.08;;;8.30;99.90;;;;;;5080458;28;20515;-84
2021/09/09 05:12:02;;;;;;;38.05;22.98;;;8.30;99.90;;;;;;5078936;28;20436;-84
2021/09/09 05:14:28;;;;;;;32.92;21.80;;;8.30;99.90;;;;;;5080805;28;20112;-84
2021/09/09 05:16:55;;;;;;;34.83;22.65;;;8.40;99.90;;;;;;5078622;28;20132;-84
2021/09/09 05:19:22;;;;;;;35.55;22.85;;;8.50;99.90;;;;;;5079113;28;20448;-83
2021/09/09 05:21:49;;;;;;;33.15;22.42;;;8.60;99.90;;;;;;5078870;28;20528;-84
2021/09/09 05:24:15;;;;;;;38.42;23.63;;;8.60;99.90;;;;;;5078954;28;20509;-84
2021/09/09 05:26:42;;;;;;;29.88;20.88;;;8.60;99.90;;;;;;5078345;28;20083;-83
2021/09/09 05:29:09;;;;;;;29.08;19.65;;;8.70;99.90;;;;;;5077775;28;20095;-83
2021/09/09 05:31:35;;;;;;;32.00;19.23;;;8.70;99.90;;;;;;5075441;28;20095;-83
2021/09/09 05:34:02;;;;;;;30.48;19.48;;;8.70;99.90;;;;;;5075469;28;20036;-83
2021/09/09 05:36:29;;;;;;;52.70;22.00;;;8.70;99.90;;;;;;5078503;28;20067;-82
2021/09/09 05:38:56;;;;;;;46.08;21.48;;;8.80;99.90;;;;;;5084652;28;20131;-85
2021/09/09 05:41:22;;;;;;;48.83;24.75;;;8.80;99.90;;;;;;5085921;28;20048;-84
2021/09/09 05:43:49;;;;;;;70.18;37.67;;;8.90;99.90;;;;;;5094892;28;20100;-82
2021/09/09 05:46:16;;;;;;;114.85;51.50;;;9.20;99.90;;;;;;5086878;28;20087;-84
2021/09/09 05:48:43;;;;;;;133.68;56.85;;;9.80;99.90;;;;;;5075907;28;20052;-83
2021/09/09 05:51:09;;;;;;;56.97;38.35;;;10.90;99.90;;;;;;5075461;28;20489;-83
2021/09/09 05:53:36;;;;;;;51.15;31.80;;;11.40;99.90;;;;;;5075855;28;20568;-82
2021/09/09 05:56:03;;;;;;;39.92;23.23;;;12.30;99.90;;;;;;5077140;28;20127;-84
2021/09/09 05:58:30;;;;;;;32.80;19.52;;;12.60;99.90;;;;;;5075813;28;20573;-84
2021/09/09 06:00:57;;;;;;;27.70;14.68;;;12.70;99.90;;;;;;5077303;28;20052;-84
2021/09/09 06:03:28;;;;;;;25.40;13.35;;;12.60;99.90;;;;;;5075666;28;20497;-84
2021/09/09 06:06:03;;;;;;;23.63;11.77;;;12.30;99.90;;;;;;5076893;28;20056;-83
2021/09/09 06:08:32;;;;;;;20.50;11.88;;;12.20;99.90;;;;;;5075444;28;20091;-84
2021/09/09 06:10:58;;;;;;;22.15;11.25;;;12.20;99.90;;;;;;5078076;28;20140;-83
2021/09/09 06:13:25;;;;;;;21.17;11.52;;;12.30;99.90;;;;;;5077577;28;20148;-85
2021/09/09 06:15:52;;;;;;;20.70;10.70;;;12.50;99.90;;;;;;5075551;28;20044;-83
2021/09/09 06:18:19;;;;;;;30.70;11.82;;;12.80;99.90;;;;;;5073956;28;20044;-82
2021/09/09 06:20:49;;;;;;;27.27;11.48;;;12.80;99.90;;;;;;5073648;28;20143;-83
2021/09/09 06:23:16;;;;;;;26.23;10.82;;;12.90;99.90;;;;;;5073890;28;20052;-82
2021/09/09 06:25:42;;;;;;;24.58;11.40;;;12.90;99.90;;;;;;5074177;28;20053;-83
2021/09/09 06:28:10;;;;;;;23.13;11.27;;;13.40;99.90;;;;;;5073468;28;20552;-82
2021/09/09 06:30:37;;;;;;;26.98;11.57;;;13.70;99.90;;;;;;5074545;28;20091;-83
2021/09/09 06:33:03;;;;;;;33.13;12.60;;;13.60;99.90;;;;;;5075134;28;20048;-82
2021/09/09 06:35:31;;;;;;;37.17;12.68;;;13.60;99.90;;;;;;5073315;28;20489;-82
2021/09/09 06:37:58;;;;;;;38.17;12.18;;;13.40;99.90;;;;;;5075095;28;20060;-82
2021/09/09 06:40:25;;;;;;;25.20;12.52;;;13.50;99.90;;;;;;5072901;28;20080;-82
2021/09/09 06:42:51;;;;;;;29.90;12.80;;;13.70;99.90;;;;;;5072918;28;20139;-81
2021/09/09 06:45:18;;;;;;;19.08;12.30;;;13.70;99.90;;;;;;5074755;28;20074;-82
2021/09/09 06:47:45;;;;;;;23.40;12.00;;;13.80;99.90;;;;;;5072897;28;20127;-81
2021/09/09 06:50:12;;;;;;;23.08;11.32;;;14.00;99.90;;;;;;5074092;28;20072;-82
2021/09/09 06:52:39;;;;;;;23.02;11.70;;;14.10;99.90;;;;;;5073059;28;20079;-82
2021/09/09 06:55:06;;;;;;;21.10;10.77;;;14.30;99.90;;;;;;5073995;28;20051;-82
2021/09/09 06:57:33;;;;;;;20.52;10.07;;;14.50;99.90;;;;;;5076889;28;20071;-81
2021/09/09 07:00:00;;;;;;;21.73;10.73;;;14.50;99.90;;;;;;5076819;28;20470;-81
2021/09/09 07:02:26;;;;;;;14.77;9.45;;;14.80;99.90;;;;;;5077034;28;20049;-85
2021/09/09 07:04:53;;;;;;;22.75;11.20;;;15.00;99.90;;;;;;5076634;28;20045;-85
2021/09/09 07:07:21;;;;;;;27.08;10.57;;;15.00;99.90;;;;;;5075955;28;20132;-82
2021/09/09 07:09:48;;;;;;;21.35;9.55;;;15.20;99.90;;;;;;5075896;28;20083;-82
2021/09/09 07:12:14;;;;;;;20.20;10.27;;;15.50;99.90;;;;;;5077257;28;20136;-83
2021/09/09 07:14:41;;;;;;;17.88;9.93;;;15.60;99.90;;;;;;5076430;28;20127;-82
2021/09/09 07:17:08;;;;;;;16.25;9.65;;;16.00;99.90;;;;;;5076184;28;20071;-83
2021/09/09 07:19:35;;;;;;;19.10;9.48;;;16.20;99.90;;;;;;5075360;28;20146;-82
2021/09/09 07:22:01;;;;;;;21.58;9.32;;;16.50;99.90;;;;;;5077708;28;20074;-83
2021/09/09 07:24:28;;;;;;;22.45;8.65;;;16.80;99.90;;;;;;5077326;28;20076;-83
2021/09/09 07:26:55;;;;;;;17.90;9.23;;;17.00;99.90;;;;;;5079675;28;20095;-81
2021/09/09 07:29:22;;;;;;;18.55;8.50;;;17.20;99.90;;;;;;5081642;28;20048;-83
2021/09/09 07:31:49;;;;;;;20.70;8.75;;;17.50;99.90;;;;;;5076850;28;20402;-80
2021/09/09 07:34:16;;;;;;;18.48;8.95;;;17.90;99.90;;;;;;5076827;28;20504;-82
2021/09/09 07:36:43;;;;;;;17.25;8.55;;;18.40;99.90;;;;;;5076106;28;20131;-83
2021/09/09 07:39:10;;;;;;;13.55;7.13;;;18.90;99.90;;;;;;5079763;28;20080;-83
2021/09/09 07:41:37;;;;;;;13.95;7.85;;;20.40;99.90;;;;;;5078380;28;20088;-83
2021/09/09 07:44:04;;;;;;;13.55;7.15;;;22.10;99.90;;;;;;5077297;28;20585;-83
2021/09/09 07:46:31;;;;;;;19.40;7.93;;;22.90;99.90;;;;;;5077176;28;20062;-83
2021/09/09 07:48:58;;;;;;;14.40;6.78;;;22.40;99.90;;;;;;5075902;28;20049;-81
2021/09/09 07:51:24;;;;;;;12.32;7.28;;;23.10;99.90;;;;;;5076543;28;20486;-81
2021/09/09 07:53:51;;;;;;;13.80;6.70;;;24.10;99.90;;;;;;5078212;28;20052;-81
2021/09/09 07:56:19;;;;;;;14.05;6.10;;;24.90;99.90;;;;;;5075196;28;20048;-81
2021/09/09 07:58:49;;;;;;;16.10;6.88;;;25.70;99.90;;;;;;5070342;28;20124;-83
2021/09/09 08:01:17;;;;;;;12.65;5.88;;;26.50;98.80;;;;;;5072330;28;20104;-83
2021/09/09 08:03:45;;;;;;;15.85;5.95;;;27.50;95.60;;;;;;5070599;28;20063;-84
2021/09/09 08:06:12;;;;;;;10.02;5.65;;;28.10;93.10;;;;;;5074012;28;20378;-83
2021/09/09 08:08:39;;;;;;;10.13;5.10;;;29.20;90.30;;;;;;5075913;28;20100;-84
2021/09/09 08:11:06;;;;;;;13.32;5.57;;;29.20;85.90;;;;;;5086366;28;20076;-83
2021/09/09 08:13:34;;;;;;;8.00;6.05;;;30.70;80.10;;;;;;5076842;28;20135;-83
2021/09/09 08:16:02;;;;;;;7.45;5.35;;;31.50;76.50;;;;;;5077287;28;20048;-83
2021/09/09 08:18:29;;;;;;;13.05;5.75;;;30.80;77.30;;;;;;5079710;28;20041;-83
2021/09/09 08:20:56;;;;;;;11.88;5.50;;;31.80;74.90;;;;;;5076808;28;20148;-83
2021/09/09 08:23:23;;;;;;;7.45;4.82;;;32.80;71.60;;;;;;5077312;28;20127;-84
2021/09/09 08:25:51;;;;;;;9.50;5.32;;;33.30;70.10;;;;;;5077035;28;20469;-81
2021/09/09 08:28:18;;;;;;;9.23;5.25;;;32.10;73.00;;;;;;5076697;28;20486;-82
2021/09/09 08:30:45;;;;;;;13.75;5.75;;;33.00;70.10;;;;;;5070937;28;20072;-84
2021/09/09 08:33:13;;;;;;;10.30;5.03;;;34.20;69.00;;;;;;5073592;28;20044;-84
2021/09/09 08:35:41;;;;;;;11.50;5.00;;;34.80;63.90;;;;;;5076484;28;20079;-83
2021/09/09 08:38:08;;;;;;;7.65;4.60;;;32.60;68.90;;;;;;5078034;28;20425;-83
2021/09/09 08:40:36;;;;;;;9.52;4.20;;;33.90;65.70;;;;;;5076881;28;20064;-84
2021/09/09 08:43:04;;;;;;;5.97;4.15;;;35.60;62.70;;;;;;5076409;28;20135;-85
2021/09/09 08:45:30;;;;;;;10.38;4.50;;;37.00;59.70;;;;;;5076920;28;20545;-84
2021/09/09 08:48:02;;;;;;;5.65;3.90;;;37.40;59.80;;;;;;5077804;28;20049;-84
2021/09/09 08:50:31;;;;;;;5.22;4.20;;;37.40;57.90;;;;;;5077890;28;20127;-84
2021/09/09 08:53:02;;;;;;;4.28;3.63;;;37.70;56.50;;;;;;5073823;28;20409;-83
2021/09/09 08:55:29;;;;;;;4.38;4.07;;;38.90;54.40;;;;;;5061676;28;20131;-84
2021/09/09 08:57:57;;;;;;;4.57;3.40;;;40.10;51.20;;;;;;5055625;28;20045;-83
2021/09/09 09:00:24;;;;;;;4.28;3.58;;;40.30;51.00;;;;;;5060510;28;20485;-84
2021/09/09 09:02:56;;;;;;;5.57;3.78;;;41.00;49.00;;;;;;5063430;28;20084;-83
2021/09/09 09:05:24;;;;;;;5.47;3.60;;;40.20;50.20;;;;;;5071785;28;20060;-84
2021/09/09 09:08:03;;;;;;;3.33;3.20;;;41.40;47.60;;;;;;5075922;28;20112;-84
2021/09/09 09:10:32;;;;;;;3.38;3.13;;;42.30;46.10;;;;;;5076089;28;20131;-84
2021/09/09 09:12:59;;;;;;;5.07;3.60;;;43.10;45.90;;;;;;5075086;28;20094;-84
2021/09/09 09:15:29;;;;;;;7.03;3.60;;;42.10;45.40;;;;;;5075066;28;20083;-83
2021/09/09 09:18:08;;;;;;;7.28;3.95;;;39.90;46.80;;;;;;5075732;28;20131;-83
2021/09/09 09:20:50;;;;;;;5.03;4.03;;;39.70;47.80;;;;;;5076083;28;20460;-84
2021/09/09 09:23:21;;;;;;;8.23;3.90;;;40.10;47.20;;;;;;5076379;28;20466;-83
2021/09/09 09:25:50;;;;;;;9.75;4.55;;;39.60;46.30;;;;;;5075044;28;20091;-83
2021/09/09 09:28:38;;;;;;;8.95;4.38;;;39.50;46.10;;;;;;5074609;28;20080;-84
2021/09/09 09:31:16;;;;;;;8.68;4.50;;;38.00;49.00;;;;;;5075093;28;20088;-84
2021/09/09 09:33:46;;;;;;;12.60;5.45;;;36.80;50.00;;;;;;5074911;28;20049;-83
2021/09/09 09:36:27;;;;;;;6.20;3.72;;;37.30;50.20;;;;;;5074970;28;20063;-84
2021/09/09 09:39:18;;;;;;;4.75;4.10;;;39.00;49.30;;;;;;5078245;28;20444;-85
2021/09/09 09:41:54;;;;;;;13.25;6.85;;;39.40;49.20;;;;;;5078477;28;20052;-84
2021/09/09 09:44:38;;;;;;;10.85;4.90;;;39.10;47.80;;;;;;5079902;28;20075;-84
2021/09/09 09:47:09;;;;;;;15.90;6.07;;;40.30;47.70;;;;;;5078125;28;20142;-83
2021/09/09 09:49:47;;;;;;;16.55;6.57;;;40.70;47.00;;;;;;5080017;28;20068;-84
2021/09/09 09:52:23;;;;;;;8.88;4.55;;;40.40;46.80;;;;;;5079471;28;20055;-84
2021/09/09 09:54:52;;;;;;;5.22;3.97;;;40.30;45.90;;;;;;5080474;28;20118;-84
2021/09/09 09:57:20;;;;;;;10.93;5.28;;;40.20;47.70;;;;;;5079385;28;20409;-84
2021/09/09 10:07:22;;;;;;;12.02;6.38;;;40.10;48.00;;;;;;5069456;22;20045;-86
2021/09/09 10:09:53;;;;;;;5.00;4.47;;;40.40;45.50;;;;;;5035288;28;20057;-90
2021/09/09 10:12:25;;;;;;;17.48;5.40;;;37.80;46.60;;;;;;5021758;28;20104;-92
2021/09/09 10:14:55;;;;;;;24.48;8.10;;;35.90;49.70;;;;;;5051746;28;20065;-89
2021/09/09 10:17:24;;;;;;;4.40;4.00;;;34.60;52.30;;;;;;5019821;28;20069;-89
2021/09/09 10:19:51;;;;;;;9.38;4.65;;;35.30;52.10;;;;;;5032007;28;20049;-89
2021/09/09 10:22:20;;;;;;;6.03;4.72;;;37.70;52.70;;;;;;5015617;28;20049;-89
2021/09/09 10:24:50;;;;;;;4.38;3.85;;;40.20;49.10;;;;;;5015917;28;20056;-90
2021/09/09 10:27:26;;;;;;;10.75;3.58;;;41.30;46.90;;;;;;5034858;28;20116;-88
2021/09/09 10:29:59;;;;;;;8.40;3.80;;;40.80;46.00;;;;;;5017294;28;20124;-88
2021/09/09 10:32:29;;;;;;;5.07;4.03;;;40.60;46.30;;;;;;5017405;28;20049;-88
2021/09/09 10:35:14;;;;;;;4.90;3.65;;;42.00;46.10;;;;;;5034384;28;20512;-89
2021/09/09 10:37:42;;;;;;;6.63;4.30;;;43.40;45.70;;;;;;5033536;28;20053;-89
2021/09/09 10:40:30;;;;;;;3.90;3.60;;;43.00;44.40;;;;;;5017082;28;20045;-88
2021/09/09 10:43:05;;;;;;;4.07;3.63;;;43.40;43.90;;;;;;5016964;28;20136;-88
2021/09/09 10:45:38;;;;;;;8.75;4.40;;;44.10;43.40;;;;;;5033258;28;20049;-88
2021/09/09 10:48:19;;;;;;;6.20;3.97;;;43.20;44.00;;;;;;5033248;28;20045;-87
2021/09/09 10:51:07;;;;;;;5.05;3.60;;;42.30;43.60;;;;;;5016902;28;20128;-86
2021/09/09 10:53:36;;;;;;;13.38;4.07;;;42.20;44.00;;;;;;5016486;28;20441;-89
2021/09/09 10:56:09;;;;;;;3.70;3.40;;;41.40;46.60;;;;;;5033058;28;20136;-88
2021/09/09 10:58:36;;;;;;;6.03;3.92;;;40.80;44.80;;;;;;5016096;28;20057;-86
2021/09/09 11:01:06;;;;;;;4.57;3.50;;;40.10;45.80;;;;;;5033537;28;20072;-88
2021/09/09 11:03:47;;;;;;;3.78;3.55;;;38.70;46.60;;;;;;5016319;28;20058;-88
2021/09/09 11:06:22;;;;;;;4.05;3.75;;;37.70;49.70;;;;;;5016245;28;20046;-88
2021/09/09 11:08:58;;;;;;;4.10;3.72;;;37.10;49.00;;;;;;5015694;28;20137;-88
2021/09/09 11:11:29;;;;;;;6.15;3.72;;;36.80;48.80;;;;;;5033420;28;20088;-86
2021/09/09 11:14:06;;;;;;;4.55;3.58;;;35.90;49.20;;;;;;5016157;28;20050;-86
2021/09/09 11:16:38;;;;;;;5.10;3.60;;;35.30;51.80;;;;;;5033322;28;20084;-88
2021/09/09 11:19:07;;;;;;;6.95;3.65;;;35.40;51.20;;;;;;5015983;28;20123;-88
2021/09/09 11:21:37;;;;;;;3.92;3.70;;;36.10;51.60;;;;;;5033724;28;20072;-87
2021/09/09 11:24:12;;;;;;;9.77;3.65;;;36.20;52.00;;;;;;5033733;28;20052;-88
2021/09/09 11:26:41;;;;;;;4.35;3.92;;;36.10;50.80;;;;;;5033289;28;20042;-88
2021/09/09 11:29:09;;;;;;;8.55;4.20;;;35.50;51.00;;;;;;5033227;28;20136;-88
2021/09/09 11:31:47;;;;;;;4.35;3.47;;;34.50;53.30;;;;;;5019411;28;20417;-89
2021/09/09 11:34:20;;;;;;;5.50;4.15;;;33.70;53.70;;;;;;5052284;28;20093;-87
2021/09/09 11:36:47;;;;;;;4.25;3.95;;;33.20;55.00;;;;;;5015902;28;20088;-86
2021/09/09 11:39:20;;;;;;;4.32;3.65;;;33.20;55.50;;;;;;5032176;28;20426;-90
2021/09/09 11:41:48;;;;;;;6.55;4.10;;;33.70;55.70;;;;;;5014498;28;20053;-90
2021/09/09 11:44:30;;;;;;;4.32;3.92;;;34.20;54.10;;;;;;5033493;28;20064;-89
2021/09/09 11:46:59;;;;;;;7.95;4.25;;;34.30;53.10;;;;;;5015736;28;20132;-89
2021/09/09 11:49:27;;;;;;;6.93;4.18;;;33.90;55.00;;;;;;5015752;28;20539;-88
2021/09/09 11:51:56;;;;;;;18.60;7.45;;;32.70;54.90;;;;;;5016004;28;20099;-88
2021/09/09 11:54:28;;;;;;;8.95;5.20;;;31.80;57.30;;;;;;5032351;28;20047;-87
2021/09/09 11:57:16;;;;;;;5.05;4.55;;;31.50;58.00;;;;;;5015679;28;20055;-87
2021/09/09 11:59:52;;;;;;;22.50;7.90;;;31.10;57.40;;;;;;5016019;28;20414;-90
2021/09/09 12:02:23;;;;;;;5.53;4.60;;;30.10;58.80;;;;;;5032221;28;20051;-89
2021/09/09 12:04:51;;;;;;;5.32;4.30;;;30.00;59.50;;;;;;5015677;28;20049;-87
2021/09/09 12:07:23;;;;;;;12.90;6.43;;;29.80;61.40;;;;;;5014682;28;20441;-88
2021/09/09 12:10:20;;;;;;;4.75;4.18;;;29.80;63.00;;;;;;5016096;28;20132;-89
2021/09/09 12:12:59;;;;;;;6.93;4.75;;;30.00;61.00;;;;;;5014536;28;20490;-87
2021/09/09 12:15:26;;;;;;;6.25;4.15;;;29.90;61.30;;;;;;5015658;28;20060;-87
2021/09/09 12:18:07;;;;;;;4.28;3.97;;;29.70;60.90;;;;;;5015854;28;20532;-87
2021/09/09 12:20:34;;;;;;;10.52;4.30;;;29.70;62.40;;;;;;5016136;28;20049;-86
2021/09/09 12:23:01;;;;;;;7.00;5.07;;;29.60;63.20;;;;;;5032566;28;20064;-87
2021/09/09 12:25:28;;;;;;;7.95;4.72;;;29.60;62.50;;;;;;5015537;28;20053;-88
2021/09/09 12:28:14;;;;;;;9.65;5.35;;;29.70;61.90;;;;;;5032108;28;20449;-87
2021/09/09 12:30:49;;;;;;;9.18;4.50;;;29.40;62.30;;;;;;5016290;28;20483;-93
2021/09/09 12:33:19;;;;;;;6.35;4.47;;;29.40;62.30;;;;;;5032326;28;20410;-88
2021/09/09 12:36:02;;;;;;;4.45;4.15;;;29.10;63.20;;;;;;5032028;28;20046;-89
2021/09/09 12:38:31;;;;;;;3.80;3.50;;;29.00;64.50;;;;;;5034958;28;20528;-89
2021/09/09 12:40:58;;;;;;;8.90;5.65;;;28.80;65.70;;;;;;5019066;28;20049;-87
2021/09/09 12:43:33;;;;;;;12.75;6.20;;;28.80;65.30;;;;;;5018988;28;20053;-89
2021/09/09 12:46:02;;;;;;;5.07;4.57;;;28.70;66.10;;;;;;5019165;28;20073;-90
2021/09/09 12:48:31;;;;;;;11.10;5.40;;;28.60;64.70;;;;;;5019332;28;20057;-88
2021/09/09 12:50:59;;;;;;;6.78;4.47;;;28.70;69.00;;;;;;5019532;28;20055;-92
2021/09/09 12:53:34;;;;;;;7.63;4.32;;;28.70;66.10;;;;;;5024737;28;20041;-88